createdAt,value
2022-12-03T00:00:43.138Z,64.23
2022-12-03T00:03:24.118Z,61.71
2022-12-03T00:05:55.018Z,61.03
2022-12-03T00:08:25.364Z,59.71
2022-12-03T00:10:56.182Z,58.32
2022-12-03T00:13:26.818Z,59.11
2022-12-03T00:29:40.641Z,59.77
2022-12-03T00:32:11.105Z,60.31
2022-12-03T00:34:41.637Z,63.45
2022-12-03T00:37:12.125Z,64.52
2022-12-03T00:39:42.859Z,63.71
2022-12-03T00:42:13.252Z,61.56
2022-12-03T00:44:44.051Z,60.64
2022-12-03T00:47:14.792Z,58.75
2022-12-03T00:49:45.627Z,60.27
2022-12-03T00:52:16.213Z,63.44
2022-12-03T00:54:46.985Z,63.96
2022-12-03T00:57:17.285Z,63.35
2022-12-03T00:59:48.003Z,61.71
2022-12-03T01:02:18.568Z,59.89
2022-12-03T01:04:50.465Z,58.43
2022-12-03T01:07:21.170Z,58.89
2022-12-03T01:09:52.017Z,62.50
2022-12-03T01:12:22.489Z,67.30
2022-12-03T01:14:54.506Z,65.98
2022-12-03T01:17:25.185Z,64.07
2022-12-03T01:19:56.330Z,62.87
2022-12-03T01:22:27.319Z,61.49
2022-12-03T01:24:58.117Z,60.44
2022-12-03T01:27:29.245Z,59.99
2022-12-03T01:29:59.942Z,58.50
2022-12-03T01:32:30.613Z,61.04
2022-12-03T01:35:01.552Z,64.75
2022-12-03T01:37:32.410Z,64.83
2022-12-03T01:40:03.422Z,62.69
2022-12-03T01:42:35.181Z,60.75
2022-12-03T01:45:06.542Z,59.99
2022-12-03T01:47:38.024Z,59.67
2022-12-03T01:50:15.475Z,58.41
2022-12-03T01:52:46.415Z,58.97
2022-12-03T01:55:18.714Z,63.83
2022-12-03T01:57:49.630Z,65.83
2022-12-03T02:00:22.142Z,63.49
2022-12-03T02:02:54.078Z,62.24
2022-12-03T02:05:26.648Z,60.85
2022-12-03T02:07:57.721Z,59.74
2022-12-03T02:10:31.671Z,58.89
2022-12-03T02:13:03.671Z,60.20
2022-12-03T02:15:34.684Z,64.08
2022-12-03T02:18:05.927Z,65.57
2022-12-03T02:20:39.426Z,64.31
2022-12-03T02:23:12.106Z,62.20
2022-12-03T02:25:43.081Z,60.92
2022-12-03T02:28:13.471Z,58.52
2022-12-03T02:30:44.433Z,60.79
2022-12-03T02:33:14.825Z,63.99
2022-12-03T02:35:45.909Z,64.55
2022-12-03T02:38:18.547Z,62.92
2022-12-03T02:40:50.817Z,61.49
2022-12-03T02:43:21.653Z,61.13
2022-12-03T02:45:53.462Z,60.41
2022-12-03T02:48:24.958Z,59.69
2022-12-03T02:50:57.127Z,59.15
2022-12-03T02:53:32.267Z,61.11
2022-12-03T02:56:03.353Z,65.06
2022-12-03T02:58:34.238Z,66.29
2022-12-03T03:01:05.995Z,65.05
2022-12-03T03:03:38.164Z,62.68
2022-12-03T03:06:10.136Z,61.54
2022-12-03T03:08:41.470Z,60.74
2022-12-03T03:11:12.559Z,60.23
2022-12-03T03:13:43.553Z,58.88
2022-12-03T03:16:14.542Z,58.26
2022-12-03T03:18:45.123Z,63.44
2022-12-03T03:21:16.403Z,65.88
2022-12-03T03:23:46.896Z,63.87
2022-12-03T03:26:17.874Z,63.02
2022-12-03T03:28:50.168Z,61.68
2022-12-03T03:31:24.304Z,60.76
2022-12-03T03:33:55.055Z,59.53
2022-12-03T03:36:27.422Z,58.98
2022-12-03T03:38:58.051Z,62.04
2022-12-03T03:41:30.421Z,65.70
2022-12-03T03:44:01.163Z,64.01
2022-12-03T03:46:33.829Z,63.52
2022-12-03T03:49:04.875Z,61.97
2022-12-03T03:51:36.404Z,60.93
2022-12-03T03:54:07.388Z,60.93
2022-12-03T03:56:38.485Z,58.86
2022-12-03T03:59:08.972Z,58.63
2022-12-03T04:01:40.199Z,61.71
2022-12-03T04:04:16.383Z,65.77
2022-12-03T04:06:47.530Z,64.97
2022-12-03T04:09:18.014Z,62.54
2022-12-03T04:12:06.398Z,60.74
2022-12-03T04:14:36.985Z,60.01
2022-12-03T04:17:07.825Z,59.84
2022-12-03T04:19:38.146Z,59.64
2022-12-03T04:22:26.802Z,58.32
2022-12-03T04:25:17.603Z,58.74
2022-12-03T04:28:06.361Z,61.87
2022-12-03T04:30:37.536Z,67.48
2022-12-03T04:33:26.766Z,66.34
2022-12-03T04:35:57.422Z,64.01
2022-12-03T04:38:28.934Z,62.51
2022-12-03T04:41:02.553Z,61.99
2022-12-03T04:43:34.634Z,61.30
2022-12-03T04:46:05.240Z,59.28
2022-12-03T04:48:36.183Z,59.67
2022-12-03T04:51:07.134Z,63.33
2022-12-03T04:53:41.889Z,65.47
2022-12-03T04:56:16.580Z,64.59
2022-12-03T04:58:47.822Z,62.37
2022-12-03T05:01:19.760Z,61.25
2022-12-03T05:03:50.413Z,60.19
2022-12-03T05:06:21.098Z,59.18
2022-12-03T05:08:51.792Z,58.97
2022-12-03T05:11:22.613Z,60.34
2022-12-03T05:13:53.913Z,65.25
2022-12-03T05:16:24.646Z,66.51
2022-12-03T05:18:55.538Z,64.64
2022-12-03T05:21:26.264Z,62.25
2022-12-03T05:23:57.412Z,61.27
2022-12-03T05:26:28.137Z,60.38
2022-12-03T05:28:58.871Z,58.48
2022-12-03T05:31:29.576Z,58.29
2022-12-03T05:34:00.548Z,60.18
2022-12-03T05:36:31.212Z,63.35
2022-12-03T05:39:01.806Z,66.15
2022-12-03T05:41:49.818Z,64.55
2022-12-03T05:44:20.884Z,62.99
2022-12-03T05:46:51.554Z,61.59
2022-12-03T05:49:22.252Z,60.57
2022-12-03T05:51:58.209Z,60.27
2022-12-03T05:54:29.446Z,58.15
2022-12-03T05:57:00.218Z,59.16
2022-12-03T05:59:31.019Z,62.00
2022-12-03T06:02:01.790Z,66.11
2022-12-03T06:04:32.705Z,65.84
2022-12-03T06:07:03.421Z,64.11
2022-12-03T06:09:34.054Z,61.84
2022-12-03T06:12:06.854Z,60.43
2022-12-03T06:14:37.570Z,60.10
2022-12-03T06:17:08.705Z,58.61
2022-12-03T06:19:39.554Z,57.52
2022-12-03T06:22:10.227Z,62.23
2022-12-03T06:24:41.117Z,66.55
2022-12-03T06:27:11.846Z,65.04
2022-12-03T06:29:42.482Z,62.51
2022-12-03T06:32:13.924Z,60.96
2022-12-03T06:34:44.867Z,60.34
2022-12-03T06:37:15.801Z,59.31
2022-12-03T06:39:46.440Z,58.60
2022-12-03T06:42:17.075Z,62.09
2022-12-03T06:44:47.652Z,64.38
2022-12-03T06:47:18.346Z,63.14
2022-12-03T06:49:49.065Z,62.78
2022-12-03T06:52:19.789Z,61.67
2022-12-03T06:54:50.583Z,60.65
2022-12-03T06:57:21.159Z,59.96
2022-12-03T06:59:52.145Z,57.97
2022-12-03T07:02:23.231Z,58.96
2022-12-03T07:04:54.565Z,64.04
2022-12-03T07:07:25.553Z,65.02
2022-12-03T07:09:56.321Z,63.31
2022-12-03T07:12:26.884Z,61.83
2022-12-03T07:14:57.531Z,61.17
2022-12-03T07:17:28.292Z,60.31
2022-12-03T07:19:59.089Z,59.72
2022-12-03T07:22:29.614Z,57.31
2022-12-03T07:25:00.725Z,58.61
2022-12-03T07:27:31.218Z,60.57
2022-12-03T07:30:02.115Z,65.11
2022-12-03T07:32:32.777Z,66.68
2022-12-03T07:35:07.277Z,64.68
2022-12-03T07:37:37.830Z,62.51
2022-12-03T07:40:09.933Z,61.11
2022-12-03T07:42:40.495Z,59.13
2022-12-03T07:45:12.039Z,58.23
2022-12-03T07:47:42.892Z,59.96
2022-12-03T07:50:14.466Z,63.76
2022-12-03T07:52:45.071Z,65.54
2022-12-03T07:55:15.871Z,63.79
2022-12-03T07:57:46.743Z,62.49
2022-12-03T08:00:20.013Z,61.17
2022-12-03T08:02:50.714Z,60.32
2022-12-03T08:05:21.700Z,58.21
2022-12-03T08:07:53.132Z,58.06
2022-12-03T08:10:24.979Z,61.32
2022-12-03T08:12:56.777Z,63.99
2022-12-03T08:15:32.247Z,65.77
2022-12-03T08:18:13.248Z,64.25
2022-12-03T08:20:44.843Z,62.07
2022-12-03T08:23:16.766Z,59.70
2022-12-03T08:25:47.877Z,58.83
2022-12-03T08:28:20.191Z,60.26
2022-12-03T08:30:59.040Z,63.53
2022-12-03T08:33:31.325Z,64.11
2022-12-03T08:36:02.977Z,63.28
2022-12-03T08:38:33.491Z,61.80
2022-12-03T08:41:04.039Z,60.44
2022-12-03T08:43:35.976Z,59.21
2022-12-03T08:46:06.784Z,58.99
2022-12-03T08:48:44.045Z,60.56
2022-12-03T08:51:24.036Z,64.72
2022-12-03T08:54:01.839Z,65.98
2022-12-03T08:56:34.148Z,62.42
2022-12-03T08:59:20.107Z,60.92
2022-12-03T09:01:51.491Z,59.76
2022-12-03T09:04:37.948Z,57.45
2022-12-03T09:07:08.820Z,60.04
2022-12-03T09:09:39.258Z,61.51
2022-12-03T09:12:10.058Z,65.78
2022-12-03T09:14:40.891Z,66.35
2022-12-03T09:17:11.840Z,63.99
2022-12-03T09:19:46.311Z,61.65
2022-12-03T09:22:18.522Z,60.48
2022-12-03T09:24:49.504Z,59.52
2022-12-03T09:27:22.640Z,57.25
2022-12-03T09:29:53.382Z,58.96
2022-12-03T09:32:25.103Z,62.86
2022-12-03T09:34:56.223Z,64.89
2022-12-03T09:37:27.532Z,63.64
2022-12-03T09:39:58.156Z,62.28
2022-12-03T09:42:29.358Z,60.50
2022-12-03T09:45:00.136Z,58.17
2022-12-03T09:47:31.993Z,59.00
2022-12-03T09:50:02.569Z,62.90
2022-12-03T09:52:34.901Z,64.63
2022-12-03T09:55:09.198Z,62.63
2022-12-03T09:57:40.309Z,60.00
2022-12-03T10:00:16.618Z,58.10
2022-12-03T10:02:47.577Z,60.25
2022-12-03T10:05:19.989Z,64.64
2022-12-03T10:07:52.905Z,65.03
2022-12-03T10:10:25.533Z,63.35
2022-12-03T10:12:56.454Z,61.56
2022-12-03T10:15:27.370Z,60.36
2022-12-03T10:17:58.713Z,59.39
2022-12-03T10:20:29.310Z,59.17
2022-12-03T10:22:59.901Z,63.16
2022-12-03T10:25:30.865Z,64.36
2022-12-03T10:28:02.880Z,61.97
2022-12-03T10:30:33.690Z,60.82
2022-12-03T10:33:17.338Z,60.93
2022-12-03T10:35:49.359Z,59.54
2022-12-03T10:38:22.375Z,58.53
2022-12-03T10:40:52.816Z,59.80
2022-12-03T10:43:24.780Z,64.61
2022-12-03T10:46:12.051Z,65.83
2022-12-03T10:48:43.068Z,63.24
2022-12-03T10:51:17.255Z,61.99
2022-12-03T10:53:48.505Z,60.50
2022-12-03T10:56:25.044Z,60.37
2022-12-03T10:58:56.331Z,58.96
2022-12-03T11:01:28.173Z,59.85
2022-12-03T11:04:04.087Z,62.87
2022-12-03T11:06:34.656Z,65.04
2022-12-03T11:09:09.102Z,63.59
2022-12-03T11:11:39.810Z,62.45
2022-12-03T11:14:11.830Z,60.59
2022-12-03T11:17:08.312Z,59.02
2022-12-03T11:19:52.198Z,56.97
2022-12-03T11:22:41.765Z,62.06
2022-12-03T11:25:25.982Z,66.50
2022-12-03T11:28:10.331Z,64.93
2022-12-03T11:30:59.202Z,62.93
2022-12-03T11:33:30.777Z,61.07
2022-12-03T11:36:15.649Z,60.53
2022-12-03T11:38:54.064Z,59.36
2022-12-03T11:41:26.042Z,59.18
2022-12-03T11:44:01.577Z,62.50
2022-12-03T11:46:39.927Z,64.72
2022-12-03T11:49:23.470Z,63.20
2022-12-03T11:51:52.667Z,60.91
2022-12-03T11:54:24.537Z,60.05
2022-12-03T11:56:56.303Z,58.72
2022-12-03T11:59:27.989Z,59.60
2022-12-03T12:01:58.565Z,62.65
2022-12-03T12:04:31.504Z,64.88
2022-12-03T12:07:02.497Z,63.24
2022-12-03T12:09:51.638Z,61.23
2022-12-03T12:12:33.558Z,60.68
2022-12-03T12:15:24.306Z,59.91
2022-12-03T12:17:54.993Z,56.81
2022-12-03T12:20:28.205Z,58.34
2022-12-03T12:23:18.662Z,63.81
2022-12-03T12:25:53.994Z,65.49
2022-12-03T12:28:24.958Z,63.76
2022-12-03T12:30:55.992Z,61.03
2022-12-03T12:33:27.692Z,60.43
2022-12-03T12:35:58.691Z,59.80
2022-12-03T12:38:29.419Z,58.08
2022-12-03T12:41:04.151Z,59.94
2022-12-03T12:43:39.029Z,63.33
2022-12-03T12:46:46.100Z,64.44
2022-12-03T12:49:10.619Z,62.68
2022-12-03T12:51:44.761Z,60.84
2022-12-03T12:54:16.699Z,60.53
2022-12-03T12:56:50.042Z,59.15
2022-12-03T12:59:21.639Z,59.22
2022-12-03T13:01:52.190Z,63.30
2022-12-03T13:04:23.900Z,64.54
2022-12-03T13:06:54.901Z,63.33
2022-12-03T13:09:26.169Z,62.37
2022-12-03T13:11:59.343Z,61.66
2022-12-03T13:14:32.736Z,60.04
2022-12-03T13:17:11.349Z,58.62
2022-12-03T13:20:00.604Z,59.14
2022-12-03T13:22:33.402Z,64.71
2022-12-03T13:25:09.173Z,64.44
2022-12-03T13:27:39.700Z,63.12
2022-12-03T13:30:15.833Z,61.65
2022-12-03T13:32:46.360Z,60.61
2022-12-03T13:35:24.171Z,60.25
2022-12-03T13:37:54.895Z,58.59
2022-12-03T13:40:28.091Z,58.74
2022-12-03T13:42:58.719Z,61.24
2022-12-03T13:45:32.813Z,66.89
2022-12-03T13:48:04.482Z,66.42
2022-12-03T13:50:36.241Z,64.66
2022-12-03T13:53:15.039Z,62.53
2022-12-03T13:55:46.688Z,61.94
2022-12-03T13:58:17.149Z,60.30
2022-12-03T14:00:48.049Z,59.92
2022-12-03T14:03:18.813Z,59.75
2022-12-03T14:05:49.549Z,58.21
2022-12-03T14:08:20.261Z,60.65
2022-12-03T14:10:55.540Z,65.36
2022-12-03T14:13:29.344Z,66.34
2022-12-03T14:16:00.157Z,63.82
2022-12-03T14:18:31.002Z,62.62
2022-12-03T14:21:01.595Z,60.74
2022-12-03T14:23:32.365Z,59.11
2022-12-03T14:26:03.195Z,58.77
2022-12-03T14:28:33.840Z,63.26
2022-12-03T14:31:04.766Z,65.89
2022-12-03T14:33:35.400Z,65.14
2022-12-03T14:36:06.483Z,62.76
2022-12-03T14:38:36.970Z,61.57
2022-12-03T14:41:28.595Z,61.06
2022-12-03T14:43:59.087Z,60.11
2022-12-03T14:46:29.965Z,58.93
2022-12-03T14:49:00.803Z,61.93
2022-12-03T14:51:31.628Z,66.12
2022-12-03T14:54:02.259Z,66.59
2022-12-03T14:56:32.789Z,64.88
2022-12-03T14:59:03.434Z,63.08
2022-12-03T15:01:34.602Z,62.29
2022-12-03T15:04:06.612Z,61.40
2022-12-03T15:06:37.171Z,61.05
2022-12-03T15:09:07.820Z,60.57
2022-12-03T15:11:44.543Z,60.08
2022-12-03T15:14:16.947Z,58.58
2022-12-03T15:16:47.657Z,60.01
2022-12-03T15:19:18.295Z,64.77
2022-12-03T15:21:49.068Z,65.65
2022-12-03T15:24:19.549Z,64.28
2022-12-03T15:26:52.905Z,63.12
2022-12-03T15:29:24.711Z,62.25
2022-12-03T15:31:55.641Z,61.49
2022-12-03T15:34:26.926Z,60.60
2022-12-03T15:36:57.752Z,60.39
2022-12-03T15:39:29.893Z,59.27
2022-12-03T15:42:00.635Z,58.32
2022-12-03T15:44:31.507Z,61.08
2022-12-03T15:47:02.061Z,67.32
2022-12-03T15:49:32.949Z,67.76
2022-12-03T15:52:04.843Z,65.80
2022-12-03T15:54:35.836Z,64.22
2022-12-03T15:57:06.706Z,61.99
2022-12-03T15:59:37.296Z,61.08
2022-12-03T16:02:08.519Z,60.96
2022-12-03T16:04:39.350Z,61.20
2022-12-03T16:07:10.170Z,60.57
2022-12-03T16:09:40.848Z,60.52
2022-12-03T16:12:12.086Z,60.25
2022-12-03T16:14:42.712Z,60.11
2022-12-03T16:17:13.306Z,60.03
2022-12-03T16:19:44.109Z,60.36
2022-12-03T16:22:14.947Z,60.13
2022-12-03T16:24:45.643Z,59.17
2022-12-03T16:27:18.101Z,58.61
2022-12-03T16:29:50.131Z,62.22
2022-12-03T16:32:20.924Z,66.64
2022-12-03T16:34:51.886Z,66.34
2022-12-03T16:37:22.695Z,64.43
2022-12-03T16:39:54.578Z,63.18
2022-12-03T16:42:27.753Z,62.28
2022-12-03T16:45:11.169Z,61.74
2022-12-03T16:47:41.686Z,61.24
2022-12-03T16:50:20.636Z,60.64
2022-12-03T16:52:55.302Z,60.89
2022-12-03T16:55:25.981Z,60.25
2022-12-03T16:57:57.483Z,60.19
2022-12-03T17:00:28.272Z,60.66
2022-12-03T17:02:59.165Z,60.58
2022-12-03T17:05:29.840Z,60.47
2022-12-03T17:08:00.755Z,60.23
2022-12-03T17:10:31.521Z,60.08
2022-12-03T17:13:10.713Z,60.07
2022-12-03T17:15:41.836Z,60.11
2022-12-03T17:18:12.978Z,60.41
2022-12-03T17:20:43.760Z,60.07
2022-12-03T17:23:14.431Z,59.99
2022-12-03T17:25:44.966Z,59.80
2022-12-03T17:28:15.601Z,59.88
2022-12-03T17:30:46.092Z,59.22
2022-12-03T17:33:17.286Z,58.85
2022-12-03T17:35:47.951Z,61.87
2022-12-03T17:38:18.481Z,66.25
2022-12-03T17:40:48.982Z,65.96
2022-12-03T17:43:19.640Z,64.88
2022-12-03T17:45:50.561Z,63.23
2022-12-03T17:48:21.480Z,62.48
2022-12-03T17:50:52.148Z,62.22
2022-12-03T17:53:22.827Z,61.66
2022-12-03T17:55:53.616Z,61.21
2022-12-03T17:58:24.144Z,60.32
2022-12-03T18:01:00.281Z,60.15
2022-12-03T18:03:33.153Z,59.96
2022-12-03T18:06:03.694Z,59.66
2022-12-03T18:08:34.688Z,58.01
2022-12-03T18:11:05.365Z,60.66
2022-12-03T18:13:36.424Z,65.82
2022-12-03T18:16:07.555Z,65.30
2022-12-03T18:18:38.431Z,63.13
2022-12-03T18:21:09.135Z,62.55
2022-12-03T18:23:40.281Z,62.25
2022-12-03T18:26:10.815Z,62.09
2022-12-03T18:28:41.957Z,61.43
2022-12-03T18:31:14.749Z,61.16
2022-12-03T18:33:45.660Z,60.93
2022-12-03T18:36:18.919Z,60.81
2022-12-03T18:38:52.018Z,60.10
2022-12-03T18:41:23.545Z,60.05
2022-12-03T18:43:54.283Z,59.85
2022-12-03T18:46:51.766Z,59.82
2022-12-03T18:49:15.672Z,59.63
2022-12-03T18:51:46.202Z,60.20
2022-12-03T18:54:17.190Z,59.62
2022-12-03T18:56:47.877Z,59.11
2022-12-03T18:59:19.221Z,63.00
2022-12-03T19:01:49.943Z,66.18
2022-12-03T19:04:21.033Z,64.61
2022-12-03T19:06:51.640Z,63.57
2022-12-03T19:09:22.215Z,63.08
2022-12-03T19:11:52.939Z,62.36
2022-12-03T19:14:23.874Z,61.79
2022-12-03T19:16:54.618Z,61.82
2022-12-03T19:19:28.173Z,61.88
2022-12-03T19:21:58.784Z,61.81
2022-12-03T19:24:31.195Z,61.63
2022-12-03T19:27:01.787Z,61.76
2022-12-03T19:29:32.984Z,61.73
2022-12-03T19:32:03.535Z,61.45
2022-12-03T19:34:34.474Z,61.50
2022-12-03T19:37:05.127Z,60.89
2022-12-03T19:39:35.968Z,60.83
2022-12-03T19:42:06.867Z,61.43
2022-12-03T19:44:37.859Z,61.61
2022-12-03T19:47:08.570Z,61.37
2022-12-03T19:49:39.371Z,60.99
2022-12-03T19:52:10.184Z,60.92
2022-12-03T19:54:40.707Z,60.87
2022-12-03T19:57:11.205Z,60.88
2022-12-03T19:59:43.055Z,61.30
2022-12-03T20:02:13.898Z,61.12
2022-12-03T20:04:44.884Z,61.59
2022-12-03T20:07:15.248Z,61.60
2022-12-03T20:09:46.144Z,61.71
2022-12-03T20:12:16.527Z,61.88
2022-12-03T20:14:47.511Z,61.80
2022-12-03T20:17:17.848Z,61.76
2022-12-03T20:19:49.390Z,61.89
2022-12-03T20:22:19.811Z,61.88
2022-12-03T20:24:50.527Z,61.98
2022-12-03T20:27:23.023Z,61.59
2022-12-03T20:29:54.699Z,61.32
2022-12-03T20:32:25.365Z,60.73
2022-12-03T20:34:56.157Z,60.41
2022-12-03T20:37:26.705Z,60.47
2022-12-03T20:39:57.648Z,60.32
2022-12-03T20:42:28.394Z,60.21
2022-12-03T20:44:59.632Z,59.89
2022-12-03T20:47:30.261Z,60.17
2022-12-03T20:50:01.510Z,60.78
2022-12-03T20:52:32.042Z,60.46
2022-12-03T20:55:02.931Z,60.26
2022-12-03T20:57:33.297Z,60.26
2022-12-03T21:00:05.565Z,60.55
2022-12-03T21:02:36.061Z,60.35
2022-12-03T21:05:07.528Z,60.14
2022-12-03T21:07:37.998Z,60.08
2022-12-03T21:10:30.415Z,59.87
2022-12-03T21:13:01.197Z,59.86
2022-12-03T21:15:32.288Z,60.12
2022-12-03T21:18:02.678Z,59.74
2022-12-03T21:20:33.857Z,59.85
2022-12-03T21:23:04.393Z,60.34
2022-12-03T21:25:35.233Z,60.29
2022-12-03T21:28:06.371Z,60.28
2022-12-03T21:30:39.030Z,61.08
2022-12-03T21:33:09.493Z,61.62
2022-12-03T21:35:40.491Z,61.01
2022-12-03T21:38:11.961Z,59.76
2022-12-03T21:40:42.666Z,61.11
2022-12-03T21:43:13.122Z,65.66
2022-12-03T21:45:44.001Z,65.72
2022-12-03T21:48:14.486Z,64.08
2022-12-03T21:50:45.743Z,63.36
2022-12-03T21:53:16.359Z,62.72
2022-12-03T21:55:47.103Z,62.83
2022-12-03T21:58:17.523Z,63.16
2022-12-03T22:00:48.575Z,63.21
2022-12-03T22:03:19.404Z,62.95
2022-12-03T22:05:50.490Z,62.77
2022-12-03T22:08:20.930Z,62.60
2022-12-03T22:10:51.868Z,62.41
2022-12-03T22:13:22.430Z,61.58
2022-12-03T22:15:53.239Z,60.50
2022-12-03T22:18:23.787Z,61.85
2022-12-03T22:20:54.631Z,61.41
2022-12-03T22:23:25.058Z,61.95
2022-12-03T22:26:00.284Z,59.73
2022-12-03T22:28:31.244Z,61.41
2022-12-03T22:31:02.152Z,66.14
2022-12-03T22:33:32.899Z,65.97
2022-12-03T22:36:05.892Z,64.73
2022-12-03T22:38:36.310Z,64.37
2022-12-03T22:41:07.576Z,63.90
2022-12-03T22:43:38.399Z,62.15
2022-12-03T22:46:11.294Z,61.24
2022-12-03T22:48:42.095Z,60.70
2022-12-03T22:51:13.414Z,60.48
2022-12-03T22:53:43.795Z,60.46
2022-12-03T22:56:14.582Z,60.28
2022-12-03T22:58:45.147Z,59.97
2022-12-03T23:01:22.610Z,59.82
2022-12-03T23:03:53.174Z,59.68
2022-12-03T23:06:24.716Z,59.50
2022-12-03T23:08:55.920Z,59.13
2022-12-03T23:11:27.256Z,61.25
2022-12-03T23:13:59.176Z,66.23
2022-12-03T23:16:31.104Z,66.32
2022-12-03T23:19:02.335Z,64.99
2022-12-03T23:21:34.298Z,63.91
2022-12-03T23:24:05.965Z,63.32
2022-12-03T23:26:38.627Z,62.53
2022-12-03T23:29:09.146Z,61.78
2022-12-03T23:31:39.969Z,61.79
2022-12-03T23:34:10.427Z,61.66
2022-12-03T23:36:41.295Z,61.83
2022-12-03T23:39:11.618Z,61.31
2022-12-03T23:41:42.285Z,61.57
2022-12-03T23:44:12.787Z,61.35
2022-12-03T23:46:43.795Z,61.30
2022-12-03T23:49:14.332Z,61.64
2022-12-03T23:51:45.190Z,61.15
2022-12-03T23:54:15.608Z,61.02
2022-12-03T23:56:46.560Z,60.63
2022-12-03T23:59:16.888Z,60.72
